createdAt,value
2019-04-27T00:02:33.697Z,143.63
2019-04-27T00:05:26.616Z,139.00
2019-04-27T00:08:07.344Z,155.27
2019-04-27T00:10:43.693Z,133.63
2019-04-27T00:13:17.646Z,137.33
2019-04-27T00:16:05.616Z,125.93
2019-04-27T00:18:57.840Z,130.57
2019-04-27T00:21:32.814Z,129.20
2019-04-27T00:24:03.517Z,131.63
2019-04-27T00:26:35.152Z,141.73
2019-04-27T00:29:05.692Z,138.13
2019-04-27T00:31:36.359Z,139.57
2019-04-27T00:34:06.783Z,142.47
2019-04-27T00:36:48.105Z,147.20
2019-04-27T00:39:27.007Z,131.20
2019-04-27T00:41:57.465Z,132.23
2019-04-27T00:44:27.905Z,130.87
2019-04-27T00:46:58.419Z,142.50
2019-04-27T00:49:28.928Z,142.80
2019-04-27T00:51:59.321Z,147.50
2019-04-27T00:54:29.990Z,134.97
2019-04-27T00:57:17.240Z,140.70
2019-04-27T01:00:05.365Z,133.97
2019-04-27T01:02:55.316Z,129.03
2019-04-27T01:05:27.215Z,144.30
2019-04-27T01:07:57.617Z,153.00
2019-04-27T01:10:28.139Z,149.77
2019-04-27T01:12:58.590Z,140.97
2019-04-27T01:15:29.347Z,146.43
2019-04-27T01:18:11.621Z,143.10
2019-04-27T01:20:31.842Z,141.90
2019-04-27T01:23:02.296Z,136.33
2019-04-27T01:25:44.583Z,127.87
2019-04-27T01:28:45.905Z,156.43
2019-04-27T01:31:16.826Z,130.10
2019-04-27T01:33:48.810Z,148.40
2019-04-27T01:36:19.567Z,145.93
2019-04-27T01:38:50.102Z,148.80
2019-04-27T01:41:20.503Z,156.90
2019-04-27T01:43:51.006Z,156.13
2019-04-27T01:46:21.392Z,150.40
2019-04-27T01:48:51.814Z,131.37
2019-04-27T01:51:22.454Z,124.73
2019-04-27T01:53:52.912Z,115.43
2019-04-27T01:56:23.493Z,128.53
2019-04-27T01:58:54.043Z,146.70
2019-04-27T02:01:55.990Z,121.40
2019-04-27T02:04:41.543Z,122.87
2019-04-27T02:07:12.127Z,112.73
2019-04-27T02:09:42.603Z,102.17
2019-04-27T02:12:13.884Z,92.73
2019-04-27T02:14:44.379Z,92.67
2019-04-27T02:17:14.722Z,87.33
2019-04-27T02:19:45.084Z,83.83
2019-04-27T02:22:15.544Z,87.53
2019-04-27T02:24:45.943Z,72.17
2019-04-27T02:27:18.713Z,61.67
2019-04-27T02:30:20.628Z,59.13
2019-04-27T02:33:30.161Z,57.13
2019-04-27T02:36:00.463Z,50.00
2019-04-27T02:38:30.978Z,57.80
2019-04-27T02:41:03.326Z,50.23
2019-04-27T02:43:56.695Z,46.63
2019-04-27T02:46:29.431Z,43.80
2019-04-27T02:49:03.539Z,43.73
2019-04-27T02:52:09.451Z,46.60
2019-04-27T02:54:40.228Z,43.97
2019-04-27T02:57:10.646Z,49.17
2019-04-27T02:59:41.093Z,58.20
2019-04-27T03:02:36.712Z,47.10
2019-04-27T03:05:12.842Z,51.50
2019-04-27T03:07:42.681Z,50.17
2019-04-27T03:10:11.996Z,57.37
2019-04-27T03:12:47.090Z,53.03
2019-04-27T03:15:43.525Z,46.50
2019-04-27T03:18:42.190Z,57.77
2019-04-27T03:21:21.379Z,52.60
2019-04-27T03:23:51.864Z,53.87
2019-04-27T03:26:44.099Z,44.83
2019-04-27T03:29:14.442Z,49.23
2019-04-27T03:31:47.581Z,51.67
2019-04-27T03:34:21.748Z,50.50
2019-04-27T03:36:49.346Z,45.27
2019-04-27T03:39:20.985Z,42.83
2019-04-27T03:41:52.978Z,41.20
2019-04-27T03:44:23.510Z,33.53
2019-04-27T03:46:53.965Z,29.00
2019-04-27T03:49:34.463Z,39.73
2019-04-27T03:52:03.144Z,41.73
2019-04-27T03:54:40.085Z,43.23
2019-04-27T03:57:29.817Z,55.10
2019-04-27T04:00:03.561Z,51.83
2019-04-27T04:02:35.711Z,49.03
2019-04-27T04:05:09.673Z,52.27
2019-04-27T04:07:40.396Z,52.57
2019-04-27T04:10:11.234Z,63.30
2019-04-27T04:13:10.714Z,61.70
2019-04-27T04:16:00.462Z,58.17
2019-04-27T04:18:50.081Z,68.50
2019-04-27T04:21:20.529Z,63.20
2019-04-27T04:23:50.964Z,66.20
2019-04-27T04:26:21.445Z,70.93
2019-04-27T04:28:51.855Z,69.87
2019-04-27T04:31:22.576Z,63.63
2019-04-27T04:33:53.016Z,61.13
2019-04-27T04:36:23.651Z,76.10
2019-04-27T04:38:54.154Z,77.83
2019-04-27T04:41:35.793Z,82.90
2019-04-27T04:44:20.833Z,69.70
2019-04-27T04:47:00.316Z,72.07
2019-04-27T04:49:31.167Z,81.20
2019-04-27T04:52:01.958Z,77.53
2019-04-27T04:54:32.351Z,60.63
2019-04-27T04:57:02.805Z,51.07
2019-04-27T04:59:33.163Z,46.43
2019-04-27T05:02:03.730Z,37.43
2019-04-27T05:04:34.320Z,34.70
2019-04-27T05:07:04.749Z,33.20
2019-04-27T05:09:35.204Z,29.20
2019-04-27T05:12:05.838Z,27.50
2019-04-27T05:14:36.592Z,26.97
2019-04-27T05:17:07.129Z,24.73
2019-04-27T05:19:38.921Z,28.20
2019-04-27T05:22:09.650Z,32.13
2019-04-27T05:24:40.258Z,30.03
2019-04-27T05:27:10.710Z,24.63
2019-04-27T05:29:41.360Z,20.47
2019-04-27T05:32:11.804Z,18.93
2019-04-27T05:34:42.485Z,19.17
2019-04-27T05:37:12.851Z,17.93
2019-04-27T05:39:43.425Z,14.93
2019-04-27T05:42:17.151Z,14.77
2019-04-27T05:45:29.108Z,12.50
2019-04-27T05:48:14.198Z,8.80
2019-04-27T05:50:46.011Z,9.63
2019-04-27T05:53:16.605Z,8.73
2019-04-27T05:55:49.446Z,9.13
2019-04-27T05:58:20.289Z,9.43
2019-04-27T06:00:50.867Z,8.07
2019-04-27T06:03:21.348Z,7.43
2019-04-27T06:05:51.858Z,6.73
2019-04-27T06:08:22.433Z,4.60
2019-04-27T06:10:53.224Z,7.50
2019-04-27T06:13:24.127Z,7.23
2019-04-27T06:15:54.748Z,7.07
2019-04-27T06:18:25.199Z,7.17
2019-04-27T06:20:56.053Z,6.40
2019-04-27T06:23:26.723Z,11.23
2019-04-27T06:25:57.361Z,9.90
2019-04-27T06:28:28.987Z,7.23
2019-04-27T06:31:00.077Z,9.47
2019-04-27T06:33:34.318Z,5.97
2019-04-27T06:36:02.857Z,10.90
2019-04-27T06:38:33.626Z,6.10
2019-04-27T06:41:04.265Z,7.40
2019-04-27T06:43:35.008Z,8.57
2019-04-27T06:46:05.741Z,8.43
2019-04-27T06:48:36.239Z,6.60
2019-04-27T06:51:09.623Z,6.40
2019-04-27T06:53:40.454Z,8.13
2019-04-27T06:56:11.073Z,11.33
2019-04-27T06:58:41.544Z,6.10
2019-04-27T07:01:12.329Z,4.70
2019-04-27T07:03:42.858Z,5.93
2019-04-27T07:06:13.696Z,6.00
2019-04-27T07:08:44.281Z,10.00
2019-04-27T07:11:15.080Z,6.10
2019-04-27T07:13:45.802Z,4.93
2019-04-27T07:16:16.229Z,4.33
2019-04-27T07:18:46.822Z,4.03
2019-04-27T07:21:21.623Z,6.70
2019-04-27T07:23:59.665Z,6.43
2019-04-27T07:26:30.655Z,7.03
2019-04-27T07:29:01.408Z,3.27
2019-04-27T07:31:32.127Z,5.33
2019-04-27T07:34:02.633Z,21.00
2019-04-27T07:36:53.040Z,5.80
2019-04-27T07:39:23.976Z,4.97
2019-04-27T07:41:54.758Z,5.87
2019-04-27T07:44:34.107Z,7.97
2019-04-27T07:47:25.229Z,6.47
2019-04-27T07:49:55.924Z,4.23
2019-04-27T07:52:28.605Z,5.43
2019-04-27T07:54:59.119Z,3.83
2019-04-27T07:57:30.348Z,3.93
2019-04-27T08:00:01.544Z,4.37
2019-04-27T08:02:32.688Z,7.77
2019-04-27T08:05:03.276Z,7.57
2019-04-27T08:07:33.848Z,6.77
2019-04-27T08:10:04.805Z,6.33
2019-04-27T08:12:35.354Z,8.77
2019-04-27T08:15:06.483Z,8.90
2019-04-27T08:17:37.107Z,5.80
2019-04-27T08:20:09.216Z,8.37
2019-04-27T08:22:39.926Z,4.47
2019-04-27T08:25:11.036Z,8.97
2019-04-27T08:28:03.418Z,9.30
2019-04-27T08:30:55.937Z,6.97
2019-04-27T08:33:26.834Z,3.27
2019-04-27T08:35:59.062Z,8.03
2019-04-27T08:38:30.067Z,5.27
2019-04-27T08:41:00.842Z,8.60
2019-04-27T08:43:32.387Z,7.17
2019-04-27T08:46:03.007Z,2.80
2019-04-27T08:48:36.868Z,4.20
2019-04-27T08:51:06.572Z,5.00
2019-04-27T08:53:37.042Z,6.33
2019-04-27T08:56:09.221Z,3.90
2019-04-27T08:58:40.010Z,5.23
2019-04-27T09:01:10.569Z,13.07
2019-04-27T09:03:41.303Z,4.70
2019-04-27T09:06:12.643Z,6.53
2019-04-27T09:08:51.710Z,3.30
2019-04-27T09:11:29.030Z,4.13
2019-04-27T09:14:19.655Z,5.37
2019-04-27T09:17:03.447Z,6.53
2019-04-27T09:19:55.089Z,11.70
2019-04-27T09:22:26.064Z,10.30
2019-04-27T09:24:56.640Z,6.63
2019-04-27T09:27:28.969Z,6.80
2019-04-27T09:29:59.709Z,6.20
2019-04-27T09:32:30.722Z,7.70
2019-04-27T09:35:01.384Z,9.17
2019-04-27T09:37:32.215Z,7.87
2019-04-27T09:40:02.894Z,7.33
2019-04-27T09:42:33.979Z,9.90
2019-04-27T09:45:06.636Z,6.17
2019-04-27T09:47:39.126Z,10.03
2019-04-27T09:50:10.655Z,7.53
2019-04-27T09:52:41.673Z,8.73
2019-04-27T09:55:13.160Z,11.47
2019-04-27T09:57:43.935Z,7.70
2019-04-27T10:00:15.981Z,11.57
2019-04-27T10:02:46.720Z,28.40
2019-04-27T10:05:17.682Z,11.00
2019-04-27T10:07:51.755Z,10.03
2019-04-27T10:10:22.843Z,9.87
2019-04-27T10:12:56.790Z,7.97
2019-04-27T10:15:30.689Z,11.43
2019-04-27T10:18:01.712Z,11.50
2019-04-27T10:20:32.324Z,11.53
2019-04-27T10:23:06.340Z,10.80
2019-04-27T10:25:38.117Z,8.40
2019-04-27T10:28:08.914Z,11.83
2019-04-27T10:30:39.689Z,8.60
2019-04-27T10:33:10.710Z,4.17
2019-04-27T10:35:42.055Z,5.77
2019-04-27T10:38:12.679Z,5.00
2019-04-27T10:40:43.538Z,6.83
2019-04-27T10:43:15.682Z,5.37
2019-04-27T10:45:46.977Z,8.10
2019-04-27T10:48:22.434Z,8.93
2019-04-27T10:50:54.154Z,6.57
2019-04-27T10:53:26.756Z,9.77
2019-04-27T10:56:01.963Z,8.13
2019-04-27T10:58:35.629Z,6.00
2019-04-27T11:01:08.904Z,6.53
2019-04-27T11:03:57.459Z,6.23
2019-04-27T11:06:34.958Z,6.10
2019-04-27T11:09:09.422Z,10.80
2019-04-27T11:11:41.899Z,8.43
2019-04-27T11:14:16.965Z,6.60
2019-04-27T11:16:48.808Z,8.17
2019-04-27T11:19:27.833Z,9.83
2019-04-27T11:24:49.328Z,10.80
2019-04-27T11:27:20.901Z,10.03
2019-04-27T11:29:56.300Z,11.27
2019-04-27T11:32:27.846Z,8.87
2019-04-27T11:35:22.069Z,13.37
2019-04-27T11:37:55.694Z,9.33
2019-04-27T11:40:30.439Z,9.53
2019-04-27T11:43:02.368Z,9.43
2019-04-27T11:45:36.777Z,7.73
2019-04-27T11:48:08.278Z,6.87
2019-04-27T11:50:40.709Z,6.57
2019-04-27T11:53:22.015Z,6.60
2019-04-27T11:55:47.680Z,6.40
2019-04-27T11:58:19.248Z,7.10
2019-04-27T12:00:51.100Z,4.80
2019-04-27T12:03:22.914Z,5.17
2019-04-27T12:06:01.321Z,6.50
2019-04-27T12:08:33.738Z,5.40
2019-04-27T12:11:10.109Z,5.97
2019-04-27T12:13:47.014Z,5.63
2019-04-27T12:16:26.185Z,7.13
2019-04-27T12:19:00.925Z,7.30
2019-04-27T12:21:31.952Z,3.23
2019-04-27T12:24:04.428Z,4.27
2019-04-27T12:26:43.171Z,6.70
2019-04-27T12:29:18.884Z,1.93
2019-04-27T12:31:50.035Z,4.63
2019-04-27T12:34:21.583Z,3.90
2019-04-27T12:36:53.525Z,4.13
2019-04-27T12:39:26.773Z,1.97
2019-04-27T12:41:57.881Z,3.83
2019-04-27T12:44:30.063Z,7.13
2019-04-27T12:47:02.742Z,3.83
2019-04-27T12:49:36.301Z,3.07
2019-04-27T12:52:07.986Z,3.30
2019-04-27T12:54:46.464Z,3.33
2019-04-27T12:57:26.354Z,2.37
2019-04-27T13:00:06.786Z,4.23
2019-04-27T13:02:38.635Z,3.70
2019-04-27T13:05:15.883Z,5.13
2019-04-27T13:07:48.969Z,3.37
2019-04-27T13:10:26.849Z,4.00
2019-04-27T13:12:58.421Z,4.53
2019-04-27T13:15:35.846Z,3.27
2019-04-27T13:18:07.421Z,4.60
2019-04-27T13:20:40.188Z,5.13
2019-04-27T13:23:16.094Z,5.87
2019-04-27T13:26:24.858Z,4.00
2019-04-27T13:28:58.293Z,4.73
2019-04-27T13:31:31.291Z,10.57
2019-04-27T13:34:05.761Z,9.27
2019-04-27T13:36:39.627Z,46.07
2019-04-27T13:39:10.887Z,27.07
2019-04-27T13:41:42.288Z,15.53
2019-04-27T13:44:28.931Z,11.43
2019-04-27T13:47:29.513Z,19.27
2019-04-27T13:50:10.935Z,16.30
2019-04-27T13:52:41.758Z,18.93
2019-04-27T13:55:13.271Z,27.83
2019-04-27T13:57:50.517Z,15.20
2019-04-27T14:00:18.202Z,17.17
2019-04-27T14:02:49.780Z,12.27
2019-04-27T14:05:20.466Z,19.33
2019-04-27T14:07:51.368Z,18.73
2019-04-27T14:10:23.864Z,19.60
2019-04-27T14:12:56.138Z,18.37
2019-04-27T14:15:30.350Z,16.87
2019-04-27T14:18:02.023Z,18.20
2019-04-27T14:20:35.337Z,15.97
2019-04-27T14:23:16.002Z,19.10
2019-04-27T14:25:47.796Z,15.20
2019-04-27T14:28:21.538Z,20.23
2019-04-27T14:30:54.456Z,16.47
2019-04-27T14:33:25.425Z,21.33
2019-04-27T14:36:08.795Z,12.73
2019-04-27T14:38:41.186Z,15.73
2019-04-27T14:41:12.125Z,13.63
2019-04-27T14:43:43.215Z,12.37
2019-04-27T14:46:14.308Z,13.67
2019-04-27T14:48:47.591Z,11.53
2019-04-27T14:51:18.786Z,8.83
2019-04-27T14:53:51.158Z,11.27
2019-04-27T14:56:24.796Z,14.20
2019-04-27T14:58:55.000Z,17.73
2019-04-27T15:01:25.940Z,13.37
2019-04-27T15:03:56.704Z,16.87
2019-04-27T15:06:27.571Z,13.13
2019-04-27T15:08:58.385Z,16.10
2019-04-27T15:11:31.543Z,18.20
2019-04-27T15:14:04.446Z,16.30
2019-04-27T15:16:37.991Z,8.33
2019-04-27T15:19:17.578Z,21.00
2019-04-27T15:21:56.447Z,16.43
2019-04-27T15:24:20.553Z,16.47
2019-04-27T15:26:54.313Z,16.33
2019-04-27T15:29:26.839Z,16.73
2019-04-27T15:32:03.992Z,18.23
2019-04-27T15:35:00.532Z,14.87
2019-04-27T15:37:39.220Z,19.30
2019-04-27T15:40:35.484Z,13.03
2019-04-27T15:43:30.806Z,14.97
2019-04-27T15:46:00.396Z,15.27
2019-04-27T15:48:33.988Z,20.50
2019-04-27T15:51:09.698Z,12.67
2019-04-27T15:53:40.864Z,12.00
2019-04-27T15:56:11.533Z,16.67
2019-04-27T15:58:43.295Z,9.07
2019-04-27T16:01:18.029Z,10.53
2019-04-27T16:03:52.112Z,9.53
2019-04-27T16:06:24.124Z,9.30
2019-04-27T16:08:55.666Z,10.20
2019-04-27T16:11:27.078Z,10.53
2019-04-27T16:13:58.761Z,9.63
2019-04-27T16:16:33.439Z,9.30
2019-04-27T16:19:10.221Z,13.47
2019-04-27T16:21:39.835Z,8.30
2019-04-27T16:24:12.588Z,7.77
2019-04-27T16:26:46.517Z,10.83
2019-04-27T16:29:16.505Z,9.47
2019-04-27T16:31:49.165Z,7.53
2019-04-27T16:34:20.006Z,13.53
2019-04-27T16:36:51.348Z,14.20
2019-04-27T16:39:22.704Z,14.17
2019-04-27T16:41:53.253Z,10.80
2019-04-27T16:44:25.642Z,6.67
2019-04-27T16:46:58.275Z,9.40
2019-04-27T16:49:29.082Z,9.73
2019-04-27T16:52:00.092Z,9.83
2019-04-27T16:54:31.470Z,8.43
2019-04-27T16:57:05.618Z,11.53
2019-04-27T16:59:43.314Z,9.80
2019-04-27T17:02:09.037Z,13.90
2019-04-27T17:04:45.164Z,11.30
2019-04-27T17:07:15.173Z,11.50
2019-04-27T17:09:46.471Z,8.43
2019-04-27T17:12:18.473Z,11.20
2019-04-27T17:15:11.725Z,13.93
2019-04-27T17:17:59.645Z,11.43
2019-04-27T17:20:30.371Z,13.33
2019-04-27T17:23:01.566Z,13.37
2019-04-27T17:25:39.185Z,11.80
2019-04-27T17:28:08.329Z,10.60
2019-04-27T17:30:41.895Z,13.87
2019-04-27T17:33:21.009Z,14.83
2019-04-27T17:35:51.836Z,12.50
2019-04-27T17:38:23.340Z,12.13
2019-04-27T17:40:55.062Z,14.47
2019-04-27T17:43:26.021Z,15.80
2019-04-27T17:45:58.245Z,12.93
2019-04-27T17:48:30.076Z,16.00
2019-04-27T17:51:03.489Z,12.53
2019-04-27T17:53:34.350Z,16.30
2019-04-27T17:56:06.059Z,19.47
2019-04-27T17:58:39.762Z,14.53
2019-04-27T18:01:13.946Z,15.33
2019-04-27T18:03:58.481Z,15.00
2019-04-27T18:06:24.478Z,16.47
2019-04-27T18:09:02.068Z,19.47
2019-04-27T18:11:28.799Z,20.60
2019-04-27T18:14:01.548Z,14.20
2019-04-27T18:16:34.419Z,20.67
2019-04-27T18:19:20.178Z,19.07
2019-04-27T18:22:02.201Z,12.10
2019-04-27T18:24:38.886Z,15.80
2019-04-27T18:27:25.485Z,10.57
2019-04-27T18:30:10.443Z,13.80
2019-04-27T18:32:40.998Z,11.97
2019-04-27T18:35:12.106Z,9.53
2019-04-27T18:37:42.766Z,16.83
2019-04-27T18:40:18.800Z,14.67
2019-04-27T18:42:50.156Z,12.67
2019-04-27T18:45:22.097Z,11.70
2019-04-27T18:47:59.418Z,13.30
2019-04-27T18:50:59.085Z,9.47
2019-04-27T18:53:31.159Z,14.13
2019-04-27T18:56:05.485Z,16.47
2019-04-27T18:58:41.428Z,18.13
2019-04-27T19:01:13.482Z,17.23
2019-04-27T19:03:49.538Z,19.97
2019-04-27T19:06:23.987Z,19.50
2019-04-27T19:09:27.957Z,12.63
2019-04-27T19:12:04.267Z,15.13
2019-04-27T19:14:42.772Z,13.70
2019-04-27T19:17:20.172Z,13.40
2019-04-27T19:20:05.758Z,15.30
2019-04-27T19:22:40.171Z,12.57
2019-04-27T19:25:14.925Z,11.97
2019-04-27T19:28:08.524Z,13.63
2019-04-27T19:30:47.587Z,9.07
2019-04-27T19:33:25.145Z,8.60
2019-04-27T19:35:58.474Z,9.87
2019-04-27T19:38:32.051Z,14.93
2019-04-27T19:41:21.883Z,14.70
2019-04-27T19:43:55.063Z,15.10
2019-04-27T19:46:30.449Z,13.37
2019-04-27T19:49:01.503Z,12.63
2019-04-27T19:51:33.934Z,11.23
2019-04-27T19:54:04.849Z,9.37
2019-04-27T19:56:38.257Z,20.03
2019-04-27T19:59:16.396Z,14.00
2019-04-27T20:01:48.291Z,15.10
2019-04-27T20:04:26.961Z,8.37
2019-04-27T20:06:58.262Z,12.00
2019-04-27T20:09:49.923Z,12.53
2019-04-27T20:12:22.767Z,17.47
2019-04-27T20:14:56.353Z,11.83
2019-04-27T20:17:31.339Z,9.23
2019-04-27T20:20:03.397Z,9.90
2019-04-27T20:22:34.908Z,12.23
2019-04-27T20:25:07.215Z,13.60
2019-04-27T20:27:48.441Z,8.47
2019-04-27T20:30:13.437Z,14.87
2019-04-27T20:32:46.507Z,11.97
2019-04-27T20:35:17.792Z,13.63
2019-04-27T20:37:49.610Z,12.97
2019-04-27T20:40:21.829Z,10.30
2019-04-27T20:42:52.844Z,15.93
2019-04-27T20:45:26.261Z,11.17
2019-04-27T20:47:57.073Z,12.80
2019-04-27T20:50:28.158Z,6.70
2019-04-27T20:53:10.662Z,11.77
2019-04-27T20:55:42.405Z,8.83
2019-04-27T20:58:13.233Z,14.57
2019-04-27T21:00:44.120Z,13.23
2019-04-27T21:03:32.486Z,12.33
2019-04-27T21:06:08.307Z,9.70
2019-04-27T21:08:41.572Z,8.83
2019-04-27T21:11:13.346Z,12.00
2019-04-27T21:13:45.036Z,7.30
2019-04-27T21:16:15.658Z,10.37
2019-04-27T21:18:46.406Z,17.57
2019-04-27T21:21:19.731Z,14.47
2019-04-27T21:23:51.502Z,12.87
2019-04-27T21:26:23.323Z,11.60
2019-04-27T21:28:54.382Z,13.67
2019-04-27T21:31:25.488Z,19.67
2019-04-27T21:33:56.607Z,13.47
2019-04-27T21:36:28.151Z,17.97
2019-04-27T21:38:59.128Z,13.13
2019-04-27T21:41:31.277Z,21.00
2019-04-27T21:44:02.646Z,15.70
2019-04-27T21:46:52.607Z,17.17
2019-04-27T21:49:35.756Z,19.77
2019-04-27T21:52:31.509Z,20.20
2019-04-27T21:55:03.468Z,22.93
2019-04-27T21:57:34.622Z,20.63
2019-04-27T22:00:10.973Z,17.73
2019-04-27T22:02:44.319Z,19.20
2019-04-27T22:05:15.786Z,21.67
2019-04-27T22:07:46.647Z,19.40
2019-04-27T22:10:17.936Z,21.13
2019-04-27T22:12:48.758Z,14.77
2019-04-27T22:15:21.157Z,23.03
2019-04-27T22:17:52.351Z,18.43
2019-04-27T22:20:23.783Z,23.73
2019-04-27T22:22:56.241Z,27.90
2019-04-27T22:25:28.996Z,22.20
2019-04-27T22:28:01.460Z,24.13
2019-04-27T22:30:32.629Z,21.40
2019-04-27T22:33:03.815Z,24.63
2019-04-27T22:35:34.983Z,25.77
2019-04-27T22:38:07.924Z,27.07
2019-04-27T22:41:02.134Z,33.73
2019-04-27T22:43:45.582Z,27.20
2019-04-27T22:46:18.867Z,26.20
2019-04-27T22:48:51.677Z,28.40
2019-04-27T22:51:24.811Z,32.93
2019-04-27T22:53:55.342Z,28.87
2019-04-27T22:56:27.168Z,23.30
2019-04-27T22:59:16.900Z,24.87
2019-04-27T23:02:15.683Z,30.37
2019-04-27T23:04:51.635Z,31.70
2019-04-27T23:07:22.541Z,29.80
2019-04-27T23:09:53.385Z,33.03
2019-04-27T23:12:24.788Z,37.40
2019-04-27T23:14:55.531Z,29.83
2019-04-27T23:17:57.838Z,29.67
2019-04-27T23:20:28.973Z,31.47
2019-04-27T23:23:01.265Z,28.23
2019-04-27T23:25:32.343Z,31.40
2019-04-27T23:28:03.435Z,29.93
2019-04-27T23:30:50.402Z,29.30
2019-04-27T23:33:21.244Z,31.93
2019-04-27T23:35:52.478Z,22.87
2019-04-27T23:38:23.266Z,29.57
2019-04-27T23:40:54.087Z,30.63
2019-04-27T23:43:25.832Z,35.03
2019-04-27T23:45:57.993Z,29.53
2019-04-27T23:48:28.507Z,26.27
2019-04-27T23:51:07.018Z,24.47
2019-04-27T23:53:38.363Z,31.03
2019-04-27T23:56:08.968Z,22.07
2019-04-27T23:58:39.703Z,27.60
